createdAt,value
2022-11-28T00:01:29.142Z,33.83
2022-11-28T00:03:55.866Z,33.84
2022-11-28T00:06:23.217Z,34.01
2022-11-28T00:08:50.102Z,33.95
2022-11-28T00:11:16.779Z,33.91
2022-11-28T00:13:43.575Z,34.00
2022-11-28T00:16:14.815Z,34.01
2022-11-28T00:18:41.668Z,34.19
2022-11-28T00:21:11.283Z,34.55
2022-11-28T00:23:38.558Z,34.39
2022-11-28T00:26:09.064Z,34.06
2022-11-28T00:28:35.900Z,34.50
2022-11-28T00:31:03.875Z,34.23
2022-11-28T00:33:31.485Z,34.18
2022-11-28T00:36:03.855Z,34.57
2022-11-28T00:38:30.561Z,34.36
2022-11-28T00:41:06.172Z,34.25
2022-11-28T00:43:33.356Z,34.35
2022-11-28T00:46:00.844Z,34.38
2022-11-28T00:48:27.793Z,34.63
2022-11-28T00:50:55.595Z,34.48
2022-11-28T00:53:22.580Z,34.56
2022-11-28T00:55:49.134Z,34.69
2022-11-28T00:58:15.732Z,34.64
2022-11-28T01:00:42.517Z,34.63
2022-11-28T01:03:09.302Z,34.32
2022-11-28T01:05:40.622Z,34.38
2022-11-28T01:08:07.700Z,34.40
2022-11-28T01:10:34.372Z,34.62
2022-11-28T01:13:01.140Z,34.36
2022-11-28T01:15:27.782Z,34.60
2022-11-28T01:17:54.482Z,34.36
2022-11-28T01:20:21.062Z,34.40
2022-11-28T01:22:48.708Z,34.54
2022-11-28T01:25:15.308Z,34.55
2022-11-28T01:27:41.913Z,34.65
2022-11-28T01:30:08.558Z,34.72
2022-11-28T01:32:35.262Z,34.90
2022-11-28T01:35:01.805Z,34.79
2022-11-28T01:37:31.280Z,34.86
2022-11-28T01:39:58.158Z,34.68
2022-11-28T01:42:26.700Z,34.82
2022-11-28T01:44:53.150Z,35.04
2022-11-28T01:47:26.892Z,34.56
2022-11-28T01:49:53.918Z,34.58
2022-11-28T01:52:21.523Z,35.01
2022-11-28T01:54:51.033Z,34.64
2022-11-28T01:57:20.740Z,34.85
2022-11-28T01:59:57.750Z,34.86
2022-11-28T02:02:37.912Z,34.84
2022-11-28T02:05:05.632Z,34.99
2022-11-28T02:07:33.425Z,35.05
2022-11-28T02:10:01.421Z,35.00
2022-11-28T02:12:40.162Z,35.12
2022-11-28T02:15:11.365Z,34.71
2022-11-28T02:17:44.248Z,35.13
2022-11-28T02:20:32.431Z,35.08
2022-11-28T02:23:29.829Z,35.04
2022-11-28T02:26:02.240Z,35.03
2022-11-28T02:28:51.974Z,34.81
2022-11-28T02:31:43.009Z,34.78
2022-11-28T02:34:17.895Z,35.12
2022-11-28T02:36:51.030Z,34.96
2022-11-28T02:39:31.588Z,34.97
2022-11-28T02:42:07.620Z,34.94
2022-11-28T02:44:41.086Z,34.97
2022-11-28T02:47:15.228Z,35.18
2022-11-28T02:49:54.627Z,34.97
2022-11-28T02:52:25.921Z,35.14
2022-11-28T02:54:54.780Z,35.15
2022-11-28T02:57:21.541Z,35.29
2022-11-28T03:04:20.074Z,35.09
2022-11-28T03:07:05.528Z,35.16
2022-11-28T03:09:46.604Z,35.14
2022-11-28T03:12:33.588Z,35.39
2022-11-28T03:15:06.447Z,35.01
2022-11-28T03:18:04.790Z,35.23
2022-11-28T03:20:44.732Z,35.36
2022-11-28T03:23:20.085Z,35.22
2022-11-28T03:26:00.167Z,35.31
2022-11-28T03:28:48.510Z,35.31
2022-11-28T03:31:22.537Z,35.35
2022-11-28T03:33:53.548Z,35.15
2022-11-28T03:36:23.784Z,35.29
2022-11-28T03:38:54.239Z,35.35
2022-11-28T03:41:27.992Z,35.30
2022-11-28T03:43:57.463Z,35.20
2022-11-28T03:46:27.594Z,35.50
2022-11-28T03:48:57.740Z,35.20
2022-11-28T03:51:40.391Z,35.21
2022-11-28T03:54:25.021Z,35.31
2022-11-28T03:57:06.689Z,35.04
2022-11-28T03:59:40.305Z,35.54
2022-11-28T04:02:32.819Z,35.23
2022-11-28T04:05:12.180Z,35.73
2022-11-28T04:08:20.842Z,35.38
2022-11-28T04:10:56.982Z,35.57
2022-11-28T04:13:29.693Z,35.31
2022-11-28T04:16:19.079Z,35.13
2022-11-28T04:18:56.722Z,35.21
2022-11-28T04:21:29.486Z,35.16
2022-11-28T04:24:01.473Z,35.30
2022-11-28T04:26:34.579Z,35.34
2022-11-28T04:29:13.745Z,35.39
2022-11-28T04:31:41.168Z,35.18
2022-11-28T04:34:09.883Z,35.49
2022-11-28T04:36:39.204Z,35.34
2022-11-28T04:39:09.606Z,35.45
2022-11-28T04:41:40.044Z,35.63
2022-11-28T04:44:13.704Z,35.43
2022-11-28T04:46:43.765Z,35.61
2022-11-28T04:49:11.292Z,35.51
2022-11-28T04:52:07.673Z,35.48
2022-11-28T04:55:06.330Z,35.43
2022-11-28T04:57:45.005Z,35.48
2022-11-28T05:00:15.034Z,35.37
2022-11-28T05:02:43.649Z,35.29
2022-11-28T05:05:12.930Z,35.65
2022-11-28T05:07:39.559Z,35.65
2022-11-28T05:10:07.321Z,35.58
2022-11-28T05:12:34.109Z,35.46
2022-11-28T05:15:00.994Z,35.42
2022-11-28T05:17:27.548Z,35.79
2022-11-28T05:19:54.146Z,35.31
2022-11-28T05:22:21.586Z,35.55
2022-11-28T05:24:48.149Z,35.47
2022-11-28T05:27:14.752Z,35.66
2022-11-28T05:29:46.793Z,35.63
2022-11-28T05:32:16.178Z,35.70
2022-11-28T05:34:42.959Z,35.67
2022-11-28T05:37:09.798Z,35.63
2022-11-28T05:39:36.323Z,35.70
2022-11-28T05:42:03.321Z,35.59
2022-11-28T05:44:29.915Z,35.79
2022-11-28T05:46:57.842Z,35.42
2022-11-28T05:49:25.494Z,35.56
2022-11-28T05:51:52.108Z,35.52
2022-11-28T05:54:18.699Z,35.75
2022-11-28T05:56:45.347Z,35.82
2022-11-28T05:59:13.293Z,35.48
2022-11-28T06:01:40.313Z,35.62
2022-11-28T06:04:07.115Z,35.68
2022-11-28T06:06:35.042Z,35.69
2022-11-28T06:09:02.771Z,35.85
2022-11-28T06:11:31.244Z,36.02
2022-11-28T06:13:57.909Z,35.80
2022-11-28T06:16:28.418Z,35.73
2022-11-28T06:18:56.911Z,35.94
2022-11-28T06:21:25.928Z,36.01
2022-11-28T06:23:54.056Z,35.84
2022-11-28T06:26:23.673Z,35.81
2022-11-28T06:28:50.299Z,36.02
2022-11-28T06:31:27.314Z,35.78
2022-11-28T06:33:54.345Z,35.71
2022-11-28T06:36:21.771Z,35.92
2022-11-28T06:38:48.732Z,35.83
2022-11-28T06:41:18.594Z,35.99
2022-11-28T06:43:45.531Z,35.97
2022-11-28T06:46:16.497Z,35.92
2022-11-28T06:48:44.754Z,35.96
2022-11-28T06:51:11.826Z,35.92
2022-11-28T06:53:38.549Z,35.94
2022-11-28T06:56:07.535Z,36.03
2022-11-28T06:58:34.624Z,35.97
2022-11-28T07:01:09.687Z,35.89
2022-11-28T07:03:37.027Z,36.18
2022-11-28T07:06:07.788Z,35.93
2022-11-28T07:08:35.228Z,35.91
2022-11-28T07:11:12.427Z,35.98
2022-11-28T07:13:40.314Z,36.12
2022-11-28T07:16:07.904Z,36.20
2022-11-28T07:18:34.783Z,36.12
2022-11-28T07:21:01.604Z,35.87
2022-11-28T07:23:28.262Z,35.90
2022-11-28T07:26:02.157Z,35.88
2022-11-28T07:28:29.886Z,36.03
2022-11-28T07:31:10.722Z,35.95
2022-11-28T07:33:38.445Z,35.94
2022-11-28T07:36:08.612Z,35.53
2022-11-28T07:38:35.231Z,35.94
2022-11-28T07:41:12.798Z,35.76
2022-11-28T07:43:41.020Z,35.62
2022-11-28T07:46:09.533Z,35.54
2022-11-28T07:48:36.548Z,35.75
2022-11-28T07:51:08.664Z,35.24
2022-11-28T07:53:36.134Z,35.10
2022-11-28T07:56:06.733Z,35.14
2022-11-28T07:58:35.211Z,34.75
2022-11-28T08:01:09.497Z,33.54
2022-11-28T08:03:37.715Z,33.96
2022-11-28T08:06:05.957Z,33.45
2022-11-28T08:08:32.812Z,33.93
2022-11-28T08:11:00.786Z,34.05
2022-11-28T08:13:27.973Z,33.42
2022-11-28T08:15:54.892Z,33.94
2022-11-28T08:18:21.817Z,33.79
2022-11-28T08:20:48.379Z,33.50
2022-11-28T08:23:15.157Z,33.46
2022-11-28T08:25:41.746Z,33.08
2022-11-28T08:28:08.384Z,33.50
2022-11-28T08:30:35.067Z,33.18
2022-11-28T08:33:01.711Z,33.50
2022-11-28T08:35:28.766Z,33.07
2022-11-28T08:38:00.379Z,33.38
2022-11-28T08:40:28.733Z,32.85
2022-11-28T08:42:55.732Z,32.80
2022-11-28T08:45:22.984Z,33.29
2022-11-28T08:47:50.165Z,32.65
2022-11-28T08:50:16.738Z,33.29
2022-11-28T08:52:43.389Z,32.64
2022-11-28T08:55:11.787Z,32.51
2022-11-28T08:57:38.456Z,32.97
2022-11-28T09:00:06.259Z,32.82
2022-11-28T09:02:32.993Z,33.01
2022-11-28T09:04:59.567Z,32.40
2022-11-28T09:07:26.172Z,32.51
2022-11-28T09:09:53.181Z,32.58
2022-11-28T09:12:19.736Z,32.76
2022-11-28T09:14:46.386Z,32.28
2022-11-28T09:17:15.657Z,32.59
2022-11-28T09:19:43.179Z,32.50
2022-11-28T09:22:10.017Z,31.95
2022-11-28T09:24:36.662Z,32.52
2022-11-28T09:27:03.234Z,32.01
2022-11-28T09:29:29.841Z,32.56
2022-11-28T09:31:56.430Z,32.43
2022-11-28T09:34:23.033Z,31.79
2022-11-28T09:36:50.119Z,32.39
2022-11-28T09:39:16.932Z,32.25
2022-11-28T09:42:16.873Z,31.71
2022-11-28T09:44:57.437Z,32.29
2022-11-28T09:47:28.296Z,32.10
2022-11-28T09:49:59.124Z,31.73
2022-11-28T09:52:30.582Z,31.53
2022-11-28T09:55:06.671Z,31.64
2022-11-28T09:57:41.306Z,31.47
2022-11-28T10:00:18.715Z,31.88
2022-11-28T10:02:59.664Z,31.83
2022-11-28T10:05:41.734Z,31.63
2022-11-28T10:08:29.828Z,31.91
2022-11-28T10:11:15.582Z,31.49
2022-11-28T10:14:10.179Z,31.78
2022-11-28T10:16:49.012Z,31.72
2022-11-28T10:19:46.146Z,31.48
2022-11-28T10:22:07.830Z,31.32
2022-11-28T10:24:38.732Z,31.46
2022-11-28T10:27:06.125Z,30.99
2022-11-28T10:29:45.880Z,31.24
2022-11-28T10:32:21.343Z,31.34
2022-11-28T10:35:09.515Z,31.19
2022-11-28T10:37:38.131Z,31.29
2022-11-28T10:40:21.087Z,31.18
2022-11-28T10:43:18.344Z,31.43
2022-11-28T10:46:14.589Z,30.71
2022-11-28T10:49:00.290Z,31.06
2022-11-28T10:51:32.941Z,30.69
2022-11-28T10:54:18.555Z,30.97
2022-11-28T10:57:12.653Z,31.03
2022-11-28T10:59:54.549Z,30.88
2022-11-28T11:02:27.115Z,30.80
2022-11-28T11:04:54.110Z,30.79
2022-11-28T11:07:32.490Z,30.53
2022-11-28T11:10:05.949Z,30.80
2022-11-28T11:12:34.054Z,30.66
2022-11-28T11:15:21.725Z,30.75
2022-11-28T11:17:50.738Z,30.49
2022-11-28T11:20:23.411Z,30.54
2022-11-28T11:23:20.485Z,30.60
2022-11-28T11:25:51.221Z,30.57
2022-11-28T11:28:40.555Z,30.58
2022-11-28T11:31:21.291Z,30.41
2022-11-28T11:33:52.795Z,30.49
2022-11-28T11:36:31.146Z,30.28
2022-11-28T11:39:08.293Z,30.37
2022-11-28T11:41:34.956Z,30.31
2022-11-28T11:44:13.596Z,30.52
2022-11-28T11:46:52.555Z,30.06
2022-11-28T11:49:34.057Z,30.77
2022-11-28T11:52:12.994Z,30.45
2022-11-28T11:55:17.953Z,30.01
2022-11-28T11:57:50.850Z,30.49
2022-11-28T12:00:20.173Z,30.53
2022-11-28T12:02:47.747Z,30.50
2022-11-28T12:05:22.901Z,30.58
2022-11-28T12:08:16.672Z,30.51
2022-11-28T12:10:50.759Z,30.54
2022-11-28T12:13:21.295Z,30.46
2022-11-28T12:16:24.869Z,30.66
2022-11-28T12:19:06.510Z,30.46
2022-11-28T12:21:42.476Z,30.63
2022-11-28T12:24:15.538Z,30.87
2022-11-28T12:26:46.905Z,31.10
2022-11-28T12:29:33.765Z,30.96
2022-11-28T12:32:22.919Z,31.17
2022-11-28T12:35:13.977Z,30.80
2022-11-28T12:38:10.231Z,30.94
2022-11-28T12:40:43.698Z,30.97
2022-11-28T12:43:17.279Z,30.97
2022-11-28T12:46:05.965Z,30.79
2022-11-28T12:49:02.511Z,30.94
2022-11-28T12:52:03.366Z,31.43
2022-11-28T12:54:30.568Z,31.57
2022-11-28T12:57:17.047Z,31.13
2022-11-28T13:00:09.621Z,31.16
2022-11-28T13:02:47.455Z,31.80
2022-11-28T13:05:26.236Z,31.42
2022-11-28T13:08:30.081Z,31.99
2022-11-28T13:11:19.379Z,31.26
2022-11-28T13:13:56.292Z,31.70
2022-11-28T13:16:29.511Z,31.48
2022-11-28T13:19:03.197Z,32.17
2022-11-28T13:21:38.943Z,32.15
2022-11-28T13:24:26.541Z,31.49
2022-11-28T13:27:12.001Z,31.99
2022-11-28T13:29:41.331Z,32.08
2022-11-28T13:32:22.232Z,32.21
2022-11-28T13:34:49.668Z,32.28
2022-11-28T13:40:18.119Z,32.49
2022-11-28T13:43:04.357Z,32.46
2022-11-28T13:45:39.154Z,32.48
2022-11-28T13:51:30.951Z,32.54
2022-11-28T13:54:16.964Z,32.60
2022-11-28T13:57:01.092Z,32.19
2022-11-28T13:59:27.829Z,32.17
2022-11-28T14:01:58.009Z,32.16
2022-11-28T14:04:26.209Z,32.25
2022-11-28T14:06:59.257Z,32.72
2022-11-28T14:09:38.401Z,32.55
2022-11-28T14:12:37.625Z,32.35
2022-11-28T14:15:22.760Z,32.76
2022-11-28T14:17:52.238Z,32.49
2022-11-28T14:20:24.850Z,32.34
2022-11-28T14:23:28.754Z,32.35
2022-11-28T14:25:56.347Z,32.50
2022-11-28T14:28:37.774Z,32.31
2022-11-28T14:31:11.147Z,32.50
2022-11-28T14:33:40.742Z,33.02
2022-11-28T14:36:29.710Z,32.91
2022-11-28T14:39:15.842Z,32.52
2022-11-28T14:42:02.317Z,32.47
2022-11-28T14:44:54.575Z,32.92
2022-11-28T14:47:28.250Z,33.04
2022-11-28T14:50:07.037Z,32.47
2022-11-28T14:52:39.640Z,32.61
2022-11-28T14:55:10.202Z,32.45
2022-11-28T14:57:57.366Z,32.60
2022-11-28T15:00:25.248Z,32.78
2022-11-28T15:03:04.737Z,32.78
2022-11-28T15:05:50.704Z,32.61
2022-11-28T15:08:45.471Z,32.66
2022-11-28T15:11:26.843Z,32.94
2022-11-28T15:14:22.267Z,32.98
2022-11-28T15:16:55.485Z,32.98
2022-11-28T15:19:33.079Z,32.91
2022-11-28T15:22:00.748Z,32.53
2022-11-28T15:24:35.808Z,32.73
2022-11-28T15:27:12.318Z,32.99
2022-11-28T15:29:39.574Z,32.86
2022-11-28T15:32:06.581Z,32.50
2022-11-28T15:34:35.513Z,32.84
2022-11-28T15:37:05.901Z,32.99
2022-11-28T15:39:40.956Z,32.98
2022-11-28T15:42:19.449Z,33.21
2022-11-28T15:44:46.428Z,33.17
2022-11-28T15:47:20.666Z,32.67
2022-11-28T15:50:19.401Z,33.09
2022-11-28T15:53:15.905Z,32.80
2022-11-28T15:55:43.760Z,32.90
2022-11-28T15:58:29.083Z,32.69
2022-11-28T16:01:23.265Z,32.81
2022-11-28T16:03:51.294Z,32.74
2022-11-28T16:06:19.053Z,33.07
2022-11-28T16:08:53.361Z,32.87
2022-11-28T16:11:23.412Z,32.76
2022-11-28T16:13:51.729Z,33.02
2022-11-28T16:16:22.420Z,32.80
2022-11-28T16:18:59.433Z,32.79
2022-11-28T16:21:30.349Z,32.80
2022-11-28T16:23:57.010Z,33.12
2022-11-28T16:26:35.641Z,33.08
2022-11-28T16:29:05.256Z,32.69
2022-11-28T16:31:32.275Z,32.64
2022-11-28T16:33:59.822Z,33.04
2022-11-28T16:36:33.812Z,32.94
2022-11-28T16:39:16.032Z,32.92
2022-11-28T16:42:07.844Z,32.66
2022-11-28T16:44:34.779Z,32.67
2022-11-28T16:47:01.633Z,32.64
2022-11-28T16:49:34.673Z,33.19
2022-11-28T16:52:23.724Z,33.09
2022-11-28T16:54:54.536Z,33.04
2022-11-28T16:57:22.006Z,32.75
2022-11-28T16:59:52.661Z,32.67
2022-11-28T17:02:22.099Z,32.90
2022-11-28T17:04:49.989Z,32.62
2022-11-28T17:07:21.806Z,32.73
2022-11-28T17:09:49.348Z,33.02
2022-11-28T17:12:27.604Z,33.07
2022-11-28T17:14:55.123Z,32.70
2022-11-28T17:17:23.509Z,32.91
2022-11-28T17:19:50.376Z,32.61
2022-11-28T17:22:20.496Z,33.06
2022-11-28T17:24:47.953Z,32.85
2022-11-28T17:27:15.313Z,32.77
2022-11-28T17:29:42.445Z,32.81
2022-11-28T17:32:11.833Z,32.77
2022-11-28T17:34:38.869Z,32.80
2022-11-28T17:37:05.546Z,32.86
2022-11-28T17:39:32.179Z,32.76
2022-11-28T17:41:59.329Z,32.83
2022-11-28T17:44:33.811Z,32.70
2022-11-28T17:47:01.697Z,32.67
2022-11-28T17:49:28.817Z,32.86
2022-11-28T17:51:55.895Z,33.06
2022-11-28T17:54:24.829Z,33.26
2022-11-28T17:56:52.758Z,32.98
2022-11-28T17:59:21.864Z,33.25
2022-11-28T18:01:49.339Z,33.03
2022-11-28T18:04:22.774Z,32.91
2022-11-28T18:06:50.595Z,33.24
2022-11-28T18:09:17.338Z,33.11
2022-11-28T18:11:46.645Z,33.23
2022-11-28T18:14:14.030Z,33.03
2022-11-28T18:16:43.645Z,32.84
2022-11-28T18:19:10.426Z,33.05
2022-11-28T18:21:37.556Z,33.29
2022-11-28T18:24:04.628Z,33.21
2022-11-28T18:26:31.808Z,32.83
2022-11-28T18:28:59.561Z,33.08
2022-11-28T18:31:28.375Z,33.12
2022-11-28T18:34:01.468Z,32.85
2022-11-28T18:36:32.321Z,33.29
2022-11-28T18:39:02.883Z,33.01
2022-11-28T18:41:30.433Z,33.24
2022-11-28T18:44:02.172Z,33.24
2022-11-28T18:46:29.378Z,33.06
2022-11-28T18:48:56.716Z,33.06
2022-11-28T18:51:27.146Z,33.29
2022-11-28T18:53:55.321Z,33.35
2022-11-28T18:56:23.543Z,33.09
2022-11-28T18:58:52.357Z,33.05
2022-11-28T19:01:28.390Z,33.11
2022-11-28T19:03:57.698Z,32.98
2022-11-28T19:06:24.357Z,32.96
2022-11-28T19:08:57.106Z,32.98
2022-11-28T19:11:24.873Z,33.17
2022-11-28T19:13:53.285Z,33.04
2022-11-28T19:16:31.764Z,33.10
2022-11-28T19:18:59.028Z,33.12
2022-11-28T19:21:29.754Z,33.37
2022-11-28T19:23:57.103Z,33.33
2022-11-28T19:26:25.342Z,32.88
2022-11-28T19:28:54.282Z,33.07
2022-11-28T19:31:23.862Z,32.90
2022-11-28T19:34:00.566Z,33.38
2022-11-28T19:36:39.223Z,33.47
2022-11-28T19:39:06.918Z,32.98
2022-11-28T19:41:34.250Z,33.10
2022-11-28T19:44:02.028Z,33.26
2022-11-28T19:46:35.050Z,33.27
2022-11-28T19:49:04.399Z,33.32
2022-11-28T19:51:31.144Z,33.45
2022-11-28T19:54:02.870Z,33.06
2022-11-28T19:56:31.478Z,33.26
2022-11-28T19:58:58.532Z,33.21
2022-11-28T20:01:26.531Z,33.15
2022-11-28T20:03:53.797Z,33.07
2022-11-28T20:06:26.354Z,33.54
2022-11-28T20:08:53.995Z,33.47
2022-11-28T20:11:26.669Z,33.23
2022-11-28T20:13:58.214Z,33.22
2022-11-28T20:16:25.918Z,33.48
2022-11-28T20:18:52.770Z,33.15
2022-11-28T20:21:20.339Z,33.36
2022-11-28T20:23:50.613Z,33.56
2022-11-28T20:26:19.674Z,33.34
2022-11-28T20:28:46.870Z,33.32
2022-11-28T20:31:21.591Z,33.27
2022-11-28T20:33:49.061Z,33.34
2022-11-28T20:36:21.055Z,33.26
2022-11-28T20:38:48.944Z,33.47
2022-11-28T20:41:17.972Z,33.23
2022-11-28T20:43:44.881Z,33.41
2022-11-28T20:46:15.625Z,33.12
2022-11-28T20:48:43.305Z,33.43
2022-11-28T20:51:11.553Z,33.50
2022-11-28T20:53:41.056Z,33.45
2022-11-28T20:56:11.221Z,33.38
2022-11-28T20:58:38.119Z,33.19
2022-11-28T21:01:05.280Z,33.44
2022-11-28T21:03:33.639Z,33.62
2022-11-28T21:06:01.448Z,33.48
2022-11-28T21:08:31.216Z,33.43
2022-11-28T21:10:57.788Z,33.61
2022-11-28T21:13:25.761Z,33.28
2022-11-28T21:15:53.846Z,33.55
2022-11-28T21:18:20.500Z,33.56
2022-11-28T21:20:47.441Z,33.51
2022-11-28T21:23:15.925Z,33.30
2022-11-28T21:25:43.447Z,33.45
2022-11-28T21:28:12.757Z,33.78
2022-11-28T21:30:42.176Z,33.60
2022-11-28T21:33:11.079Z,33.54
2022-11-28T21:35:40.672Z,33.24
2022-11-28T21:38:08.430Z,33.61
2022-11-28T21:40:35.012Z,33.56
2022-11-28T21:43:01.716Z,33.36
2022-11-28T21:45:28.685Z,33.72
2022-11-28T21:47:55.648Z,33.55
2022-11-28T21:50:23.164Z,33.68
2022-11-28T21:52:50.056Z,33.65
2022-11-28T21:55:17.223Z,33.71
2022-11-28T21:57:44.005Z,33.70
2022-11-28T22:00:20.787Z,33.64
2022-11-28T22:03:03.258Z,33.70
2022-11-28T22:05:31.503Z,33.59
2022-11-28T22:07:59.062Z,33.65
2022-11-28T22:10:26.066Z,33.48
2022-11-28T22:12:56.084Z,33.66
2022-11-28T22:15:23.284Z,33.77
2022-11-28T22:17:50.173Z,33.76
2022-11-28T22:20:17.985Z,33.69
2022-11-28T22:22:44.550Z,33.70
2022-11-28T22:25:11.615Z,33.48
2022-11-28T22:27:38.276Z,33.89
2022-11-28T22:30:07.072Z,33.69
2022-11-28T22:32:34.122Z,33.71
2022-11-28T22:35:02.619Z,33.56
2022-11-28T22:37:30.100Z,34.01
2022-11-28T22:39:57.059Z,33.99
2022-11-28T22:42:24.055Z,33.75
2022-11-28T22:44:50.772Z,33.71
2022-11-28T22:47:17.357Z,33.61
2022-11-28T22:49:44.085Z,33.75
2022-11-28T22:52:10.676Z,33.87
2022-11-28T22:54:37.253Z,33.80
2022-11-28T22:57:03.938Z,33.69
2022-11-28T22:59:33.612Z,33.83
2022-11-28T23:02:01.592Z,33.90
2022-11-28T23:04:28.913Z,33.93
2022-11-28T23:07:15.760Z,33.68
2022-11-28T23:09:42.442Z,33.69
2022-11-28T23:12:08.963Z,34.07
2022-11-28T23:14:35.492Z,33.94
2022-11-28T23:17:02.223Z,33.83
2022-11-28T23:19:31.682Z,33.73
2022-11-28T23:21:58.444Z,33.78
2022-11-28T23:24:25.110Z,33.73
2022-11-28T23:26:52.783Z,33.66
2022-11-28T23:29:20.209Z,33.78
2022-11-28T23:31:48.808Z,33.80
2022-11-28T23:34:16.287Z,33.85
2022-11-28T23:36:45.642Z,33.73
2022-11-28T23:39:20.938Z,33.89
2022-11-28T23:41:47.598Z,33.84
2022-11-28T23:44:15.354Z,33.85
2022-11-28T23:46:42.462Z,34.00
2022-11-28T23:49:09.770Z,33.93
2022-11-28T23:51:36.510Z,34.11
2022-11-28T23:54:04.869Z,33.73
2022-11-28T23:56:33.711Z,33.83
2022-11-28T23:59:01.735Z,34.00
